sensor_id;sensor_type;location;lat;lon;timestamp;P1;durP1;ratioP1;P2;durP2;ratioP2
60873;SDS011;46715;40.642;-7.920;2024-03-08T00:01:53;14.93;;;8.40;;
60873;SDS011;46715;40.642;-7.920;2024-03-08T00:03:54;14.43;;;9.23;;
60873;SDS011;46715;40.642;-7.920;2024-03-08T00:05:55;15.77;;;8.60;;
60873;SDS011;46715;40.642;-7.920;2024-03-08T00:07:56;12.60;;;7.72;;
60873;SDS011;46715;40.642;-7.920;2024-03-08T00:09:57;11.03;;;7.67;;
60873;SDS011;46715;40.642;-7.920;2024-03-08T00:11:58;10.57;;;6.67;;
60873;SDS011;46715;40.642;-7.920;2024-03-08T00:13:59;11.27;;;6.33;;
60873;SDS011;46715;40.642;-7.920;2024-03-08T00:15:59;11.20;;;6.27;;
60873;SDS011;46715;40.642;-7.920;2024-03-08T00:18:00;10.97;;;5.33;;
60873;SDS011;46715;40.642;-7.920;2024-03-08T00:20:01;9.13;;;5.43;;
60873;SDS011;46715;40.642;-7.920;2024-03-08T00:22:06;8.52;;;4.10;;
60873;SDS011;46715;40.642;-7.920;2024-03-08T00:24:08;6.30;;;3.15;;
60873;SDS011;46715;40.642;-7.920;2024-03-08T00:26:08;5.90;;;3.07;;
60873;SDS011;46715;40.642;-7.920;2024-03-08T00:28:09;5.33;;;2.73;;
60873;SDS011;46715;40.642;-7.920;2024-03-08T00:30:13;4.50;;;2.70;;
60873;SDS011;46715;40.642;-7.920;2024-03-08T00:32:14;5.10;;;2.53;;
60873;SDS011;46715;40.642;-7.920;2024-03-08T00:34:15;5.87;;;2.43;;
60873;SDS011;46715;40.642;-7.920;2024-03-08T00:36:16;3.73;;;1.90;;
60873;SDS011;46715;40.642;-7.920;2024-03-08T00:38:16;4.50;;;2.43;;
60873;SDS011;46715;40.642;-7.920;2024-03-08T00:40:19;5.53;;;2.30;;
60873;SDS011;46715;40.642;-7.920;2024-03-08T00:42:20;4.17;;;2.07;;
60873;SDS011;46715;40.642;-7.920;2024-03-08T00:44:21;19.65;;;2.30;;
60873;SDS011;46715;40.642;-7.920;2024-03-08T00:46:21;7.83;;;2.20;;
60873;SDS011;46715;40.642;-7.920;2024-03-08T00:48:22;4.33;;;2.43;;
60873;SDS011;46715;40.642;-7.920;2024-03-08T00:50:23;8.53;;;2.70;;
60873;SDS011;46715;40.642;-7.920;2024-03-08T00:52:24;3.93;;;2.27;;
60873;SDS011;46715;40.642;-7.920;2024-03-08T00:54:25;4.20;;;2.40;;
60873;SDS011;46715;40.642;-7.920;2024-03-08T00:56:26;4.83;;;2.00;;
60873;SDS011;46715;40.642;-7.920;2024-03-08T00:58:27;5.00;;;1.80;;
60873;SDS011;46715;40.642;-7.920;2024-03-08T01:00:29;3.88;;;2.17;;
60873;SDS011;46715;40.642;-7.920;2024-03-08T01:02:30;2.00;;;1.67;;
60873;SDS011;46715;40.642;-7.920;2024-03-08T01:04:30;2.07;;;1.70;;
60873;SDS011;46715;40.642;-7.920;2024-03-08T01:06:32;2.05;;;1.50;;
60873;SDS011;46715;40.642;-7.920;2024-03-08T01:08:33;2.10;;;1.48;;
60873;SDS011;46715;40.642;-7.920;2024-03-08T01:10:34;2.77;;;1.97;;
60873;SDS011;46715;40.642;-7.920;2024-03-08T01:12:35;5.00;;;2.23;;
60873;SDS011;46715;40.642;-7.920;2024-03-08T01:14:36;4.60;;;2.42;;
60873;SDS011;46715;40.642;-7.920;2024-03-08T01:16:36;4.13;;;2.10;;
60873;SDS011;46715;40.642;-7.920;2024-03-08T01:18:37;2.50;;;1.90;;
60873;SDS011;46715;40.642;-7.920;2024-03-08T01:20:38;3.13;;;2.17;;
60873;SDS011;46715;40.642;-7.920;2024-03-08T01:22:40;2.63;;;1.77;;
60873;SDS011;46715;40.642;-7.920;2024-03-08T01:24:41;2.25;;;1.73;;
60873;SDS011;46715;40.642;-7.920;2024-03-08T01:26:43;2.25;;;1.55;;
60873;SDS011;46715;40.642;-7.920;2024-03-08T01:28:44;3.90;;;1.90;;
60873;SDS011;46715;40.642;-7.920;2024-03-08T01:30:45;2.30;;;1.57;;
60873;SDS011;46715;40.642;-7.920;2024-03-08T01:32:45;3.33;;;1.90;;
60873;SDS011;46715;40.642;-7.920;2024-03-08T01:34:46;5.23;;;2.03;;
60873;SDS011;46715;40.642;-7.920;2024-03-08T01:36:47;4.07;;;1.87;;
60873;SDS011;46715;40.642;-7.920;2024-03-08T01:38:47;6.03;;;2.13;;
60873;SDS011;46715;40.642;-7.920;2024-03-08T01:40:48;3.07;;;1.53;;
60873;SDS011;46715;40.642;-7.920;2024-03-08T01:42:52;5.68;;;2.05;;
60873;SDS011;46715;40.642;-7.920;2024-03-08T01:44:54;4.60;;;1.50;;
60873;SDS011;46715;40.642;-7.920;2024-03-08T01:46:55;7.37;;;1.60;;
60873;SDS011;46715;40.642;-7.920;2024-03-08T01:48:56;3.17;;;1.60;;
60873;SDS011;46715;40.642;-7.920;2024-03-08T01:50:57;3.13;;;1.50;;
60873;SDS011;46715;40.642;-7.920;2024-03-08T01:52:58;2.13;;;1.50;;
60873;SDS011;46715;40.642;-7.920;2024-03-08T01:57:01;7.87;;;1.73;;
60873;SDS011;46715;40.642;-7.920;2024-03-08T01:59:03;4.97;;;2.15;;
60873;SDS011;46715;40.642;-7.920;2024-03-08T02:01:06;3.13;;;1.80;;
60873;SDS011;46715;40.642;-7.920;2024-03-08T02:03:09;8.07;;;1.92;;
60873;SDS011;46715;40.642;-7.920;2024-03-08T02:05:10;4.05;;;2.08;;
60873;SDS011;46715;40.642;-7.920;2024-03-08T02:07:11;3.87;;;1.80;;
60873;SDS011;46715;40.642;-7.920;2024-03-08T02:09:12;7.93;;;2.27;;
60873;SDS011;46715;40.642;-7.920;2024-03-08T02:11:13;3.97;;;2.10;;
60873;SDS011;46715;40.642;-7.920;2024-03-08T02:13:26;2.63;;;1.70;;
60873;SDS011;46715;40.642;-7.920;2024-03-08T02:15:26;2.53;;;1.50;;
60873;SDS011;46715;40.642;-7.920;2024-03-08T02:17:54;3.05;;;1.48;;
60873;SDS011;46715;40.642;-7.920;2024-03-08T02:19:55;3.60;;;1.47;;
60873;SDS011;46715;40.642;-7.920;2024-03-08T02:21:55;1.93;;;1.47;;
60873;SDS011;46715;40.642;-7.920;2024-03-08T02:24:00;3.03;;;1.23;;
60873;SDS011;46715;40.642;-7.920;2024-03-08T02:26:01;6.03;;;1.95;;
60873;SDS011;46715;40.642;-7.920;2024-03-08T02:28:02;5.00;;;1.80;;
60873;SDS011;46715;40.642;-7.920;2024-03-08T02:32:11;4.25;;;1.52;;
60873;SDS011;46715;40.642;-7.920;2024-03-08T02:34:12;2.30;;;1.50;;
60873;SDS011;46715;40.642;-7.920;2024-03-08T02:36:14;8.18;;;1.77;;
60873;SDS011;46715;40.642;-7.920;2024-03-08T02:38:17;3.30;;;1.88;;
60873;SDS011;46715;40.642;-7.920;2024-03-08T02:40:22;8.60;;;2.03;;
60873;SDS011;46715;40.642;-7.920;2024-03-08T02:42:22;3.83;;;1.80;;
60873;SDS011;46715;40.642;-7.920;2024-03-08T02:44:23;7.23;;;1.93;;
60873;SDS011;46715;40.642;-7.920;2024-03-08T02:46:24;4.37;;;1.73;;
60873;SDS011;46715;40.642;-7.920;2024-03-08T02:48:25;9.60;;;2.63;;
60873;SDS011;46715;40.642;-7.920;2024-03-08T02:50:26;8.67;;;2.37;;
60873;SDS011;46715;40.642;-7.920;2024-03-08T02:52:27;14.10;;;2.50;;
60873;SDS011;46715;40.642;-7.920;2024-03-08T02:54:27;9.88;;;2.58;;
60873;SDS011;46715;40.642;-7.920;2024-03-08T02:56:28;9.13;;;2.03;;
60873;SDS011;46715;40.642;-7.920;2024-03-08T02:58:30;13.60;;;2.42;;
60873;SDS011;46715;40.642;-7.920;2024-03-08T03:00:31;17.97;;;3.43;;
60873;SDS011;46715;40.642;-7.920;2024-03-08T03:02:33;15.02;;;2.53;;
60873;SDS011;46715;40.642;-7.920;2024-03-08T03:04:34;15.70;;;3.60;;
60873;SDS011;46715;40.642;-7.920;2024-03-08T03:06:35;16.80;;;3.87;;
60873;SDS011;46715;40.642;-7.920;2024-03-08T03:08:35;20.57;;;3.53;;
60873;SDS011;46715;40.642;-7.920;2024-03-08T03:10:36;21.33;;;3.17;;
60873;SDS011;46715;40.642;-7.920;2024-03-08T03:12:37;22.17;;;3.83;;
60873;SDS011;46715;40.642;-7.920;2024-03-08T03:14:38;28.20;;;4.20;;
60873;SDS011;46715;40.642;-7.920;2024-03-08T03:16:50;26.48;;;4.50;;
60873;SDS011;46715;40.642;-7.920;2024-03-08T03:18:50;27.05;;;5.03;;
60873;SDS011;46715;40.642;-7.920;2024-03-08T03:20:51;27.67;;;5.77;;
60873;SDS011;46715;40.642;-7.920;2024-03-08T03:22:52;34.60;;;4.50;;
60873;SDS011;46715;40.642;-7.920;2024-03-08T03:24:53;24.67;;;4.77;;
60873;SDS011;46715;40.642;-7.920;2024-03-08T03:26:53;26.27;;;4.20;;
60873;SDS011;46715;40.642;-7.920;2024-03-08T03:28:55;21.35;;;3.55;;
60873;SDS011;46715;40.642;-7.920;2024-03-08T03:30:57;24.13;;;4.18;;
60873;SDS011;46715;40.642;-7.920;2024-03-08T03:32:59;21.60;;;3.95;;
60873;SDS011;46715;40.642;-7.920;2024-03-08T03:35:01;29.98;;;4.55;;
60873;SDS011;46715;40.642;-7.920;2024-03-08T03:37:05;23.27;;;3.70;;
60873;SDS011;46715;40.642;-7.920;2024-03-08T03:39:08;23.75;;;4.57;;
60873;SDS011;46715;40.642;-7.920;2024-03-08T03:41:20;32.83;;;4.35;;
60873;SDS011;46715;40.642;-7.920;2024-03-08T03:43:26;33.10;;;4.47;;
60873;SDS011;46715;40.642;-7.920;2024-03-08T03:45:30;26.50;;;3.72;;
60873;SDS011;46715;40.642;-7.920;2024-03-08T03:47:35;23.83;;;4.82;;
60873;SDS011;46715;40.642;-7.920;2024-03-08T03:49:36;41.55;;;5.32;;
60873;SDS011;46715;40.642;-7.920;2024-03-08T03:51:36;28.53;;;4.73;;
60873;SDS011;46715;40.642;-7.920;2024-03-08T03:53:37;28.17;;;5.10;;
60873;SDS011;46715;40.642;-7.920;2024-03-08T03:58:43;23.85;;;4.35;;
60873;SDS011;46715;40.642;-7.920;2024-03-08T04:00:43;25.00;;;4.57;;
60873;SDS011;46715;40.642;-7.920;2024-03-08T04:02:44;31.50;;;5.57;;
60873;SDS011;46715;40.642;-7.920;2024-03-08T04:04:45;32.37;;;5.30;;
60873;SDS011;46715;40.642;-7.920;2024-03-08T04:06:47;23.65;;;4.00;;
60873;SDS011;46715;40.642;-7.920;2024-03-08T04:08:48;30.10;;;4.53;;
60873;SDS011;46715;40.642;-7.920;2024-03-08T04:10:48;26.10;;;5.03;;
60873;SDS011;46715;40.642;-7.920;2024-03-08T04:16:30;19.40;;;3.67;;
60873;SDS011;46715;40.642;-7.920;2024-03-08T04:18:32;17.35;;;3.00;;
60873;SDS011;46715;40.642;-7.920;2024-03-08T04:20:35;18.17;;;2.67;;
60873;SDS011;46715;40.642;-7.920;2024-03-08T04:22:36;14.00;;;2.70;;
60873;SDS011;46715;40.642;-7.920;2024-03-08T04:24:37;14.43;;;3.35;;
60873;SDS011;46715;40.642;-7.920;2024-03-08T04:26:40;16.63;;;3.33;;
60873;SDS011;46715;40.642;-7.920;2024-03-08T04:28:41;8.73;;;2.20;;
60873;SDS011;46715;40.642;-7.920;2024-03-08T04:30:42;13.07;;;2.70;;
60873;SDS011;46715;40.642;-7.920;2024-03-08T04:32:42;9.23;;;2.83;;
60873;SDS011;46715;40.642;-7.920;2024-03-08T04:34:43;18.13;;;3.07;;
60873;SDS011;46715;40.642;-7.920;2024-03-08T04:36:44;13.65;;;3.13;;
60873;SDS011;46715;40.642;-7.920;2024-03-08T04:38:45;8.40;;;2.93;;
60873;SDS011;46715;40.642;-7.920;2024-03-08T04:40:46;14.03;;;2.70;;
60873;SDS011;46715;40.642;-7.920;2024-03-08T04:42:46;22.43;;;3.40;;
60873;SDS011;46715;40.642;-7.920;2024-03-08T04:44:51;25.10;;;4.45;;
60873;SDS011;46715;40.642;-7.920;2024-03-08T04:56:00;25.80;;;4.20;;
60873;SDS011;46715;40.642;-7.920;2024-03-08T04:58:06;23.92;;;4.55;;
60873;SDS011;46715;40.642;-7.920;2024-03-08T05:00:07;28.25;;;4.65;;
60873;SDS011;46715;40.642;-7.920;2024-03-08T05:02:14;31.42;;;5.35;;
60873;SDS011;46715;40.642;-7.920;2024-03-08T05:04:15;30.88;;;5.32;;
60873;SDS011;46715;40.642;-7.920;2024-03-08T05:06:16;31.87;;;4.70;;
60873;SDS011;46715;40.642;-7.920;2024-03-08T05:08:17;27.35;;;4.70;;
60873;SDS011;46715;40.642;-7.920;2024-03-08T05:10:19;28.45;;;4.57;;
60873;SDS011;46715;40.642;-7.920;2024-03-08T05:12:19;22.40;;;5.43;;
60873;SDS011;46715;40.642;-7.920;2024-03-08T05:14:20;39.03;;;4.37;;
60873;SDS011;46715;40.642;-7.920;2024-03-08T05:16:21;25.43;;;4.73;;
60873;SDS011;46715;40.642;-7.920;2024-03-08T05:18:22;30.23;;;4.35;;
60873;SDS011;46715;40.642;-7.920;2024-03-08T05:20:23;28.77;;;4.63;;
60873;SDS011;46715;40.642;-7.920;2024-03-08T05:22:24;32.63;;;5.57;;
60873;SDS011;46715;40.642;-7.920;2024-03-08T05:24:26;26.00;;;4.45;;
60873;SDS011;46715;40.642;-7.920;2024-03-08T05:26:27;17.57;;;5.07;;
60873;SDS011;46715;40.642;-7.920;2024-03-08T05:28:28;33.05;;;5.15;;
60873;SDS011;46715;40.642;-7.920;2024-03-08T05:30:29;22.60;;;4.30;;
60873;SDS011;46715;40.642;-7.920;2024-03-08T05:32:33;35.13;;;5.40;;
60873;SDS011;46715;40.642;-7.920;2024-03-08T05:34:33;24.83;;;4.82;;
60873;SDS011;46715;40.642;-7.920;2024-03-08T05:36:34;32.73;;;5.83;;
60873;SDS011;46715;40.642;-7.920;2024-03-08T05:38:35;31.77;;;5.63;;
60873;SDS011;46715;40.642;-7.920;2024-03-08T05:40:35;27.60;;;5.50;;
60873;SDS011;46715;40.642;-7.920;2024-03-08T05:42:36;30.93;;;4.40;;
60873;SDS011;46715;40.642;-7.920;2024-03-08T05:44:37;32.17;;;4.90;;
60873;SDS011;46715;40.642;-7.920;2024-03-08T05:46:38;33.43;;;4.87;;
60873;SDS011;46715;40.642;-7.920;2024-03-08T05:48:39;21.33;;;3.97;;
60873;SDS011;46715;40.642;-7.920;2024-03-08T05:50:40;24.53;;;5.03;;
60873;SDS011;46715;40.642;-7.920;2024-03-08T05:52:41;30.80;;;5.20;;
60873;SDS011;46715;40.642;-7.920;2024-03-08T06:15:02;30.27;;;4.38;;
60873;SDS011;46715;40.642;-7.920;2024-03-08T06:17:04;26.50;;;4.63;;
60873;SDS011;46715;40.642;-7.920;2024-03-08T06:19:07;27.30;;;4.18;;
60873;SDS011;46715;40.642;-7.920;2024-03-08T06:21:08;26.03;;;4.50;;
60873;SDS011;46715;40.642;-7.920;2024-03-08T06:23:11;18.63;;;3.50;;
60873;SDS011;46715;40.642;-7.920;2024-03-08T06:25:12;25.33;;;4.00;;
60873;SDS011;46715;40.642;-7.920;2024-03-08T06:27:14;24.83;;;4.25;;
60873;SDS011;46715;40.642;-7.920;2024-03-08T06:29:15;26.47;;;4.07;;
60873;SDS011;46715;40.642;-7.920;2024-03-08T06:31:15;13.07;;;3.90;;
60873;SDS011;46715;40.642;-7.920;2024-03-08T06:33:17;21.77;;;3.77;;
60873;SDS011;46715;40.642;-7.920;2024-03-08T06:35:18;32.63;;;4.50;;
60873;SDS011;46715;40.642;-7.920;2024-03-08T06:37:20;22.30;;;4.00;;
60873;SDS011;46715;40.642;-7.920;2024-03-08T06:39:22;27.75;;;5.00;;
60873;SDS011;46715;40.642;-7.920;2024-03-08T06:41:25;17.38;;;3.30;;
60873;SDS011;46715;40.642;-7.920;2024-03-08T06:45:34;17.30;;;3.58;;
60873;SDS011;46715;40.642;-7.920;2024-03-08T06:47:37;16.67;;;3.53;;
60873;SDS011;46715;40.642;-7.920;2024-03-08T06:49:58;17.58;;;3.47;;
60873;SDS011;46715;40.642;-7.920;2024-03-08T06:51:59;28.70;;;3.83;;
60873;SDS011;46715;40.642;-7.920;2024-03-08T06:57:00;19.23;;;3.63;;
60873;SDS011;46715;40.642;-7.920;2024-03-08T06:59:00;14.10;;;3.67;;
60873;SDS011;46715;40.642;-7.920;2024-03-08T07:01:03;18.20;;;2.97;;
60873;SDS011;46715;40.642;-7.920;2024-03-08T07:06:36;17.60;;;3.35;;
60873;SDS011;46715;40.642;-7.920;2024-03-08T07:08:37;18.20;;;2.80;;
60873;SDS011;46715;40.642;-7.920;2024-03-08T07:10:38;14.07;;;2.97;;
60873;SDS011;46715;40.642;-7.920;2024-03-08T07:12:42;16.13;;;2.70;;
60873;SDS011;46715;40.642;-7.920;2024-03-08T07:14:42;13.90;;;2.73;;
60873;SDS011;46715;40.642;-7.920;2024-03-08T07:16:45;13.82;;;2.85;;
60873;SDS011;46715;40.642;-7.920;2024-03-08T07:18:46;33.63;;;3.37;;
60873;SDS011;46715;40.642;-7.920;2024-03-08T07:20:47;18.90;;;4.17;;
60873;SDS011;46715;40.642;-7.920;2024-03-08T07:22:49;19.42;;;3.05;;
60873;SDS011;46715;40.642;-7.920;2024-03-08T07:24:53;17.88;;;3.65;;
60873;SDS011;46715;40.642;-7.920;2024-03-08T07:27:16;20.17;;;2.50;;
60873;SDS011;46715;40.642;-7.920;2024-03-08T07:29:18;11.52;;;3.00;;
60873;SDS011;46715;40.642;-7.920;2024-03-08T07:31:18;12.73;;;2.77;;
60873;SDS011;46715;40.642;-7.920;2024-03-08T07:33:38;7.53;;;2.47;;
60873;SDS011;46715;40.642;-7.920;2024-03-08T07:35:41;8.73;;;2.83;;
60873;SDS011;46715;40.642;-7.920;2024-03-08T07:56:54;21.13;;;2.80;;
60873;SDS011;46715;40.642;-7.920;2024-03-08T07:58:55;13.23;;;2.70;;
60873;SDS011;46715;40.642;-7.920;2024-03-08T08:00:56;17.73;;;3.53;;
60873;SDS011;46715;40.642;-7.920;2024-03-08T08:02:57;17.80;;;3.93;;
60873;SDS011;46715;40.642;-7.920;2024-03-08T08:04:58;15.47;;;3.40;;
60873;SDS011;46715;40.642;-7.920;2024-03-08T08:06:59;22.10;;;3.63;;
60873;SDS011;46715;40.642;-7.920;2024-03-08T08:09:00;19.93;;;3.37;;
60873;SDS011;46715;40.642;-7.920;2024-03-08T08:11:00;14.13;;;3.30;;
60873;SDS011;46715;40.642;-7.920;2024-03-08T08:13:03;20.73;;;2.97;;
60873;SDS011;46715;40.642;-7.920;2024-03-08T08:30:38;16.02;;;3.30;;
60873;SDS011;46715;40.642;-7.920;2024-03-08T08:32:39;16.80;;;3.10;;
60873;SDS011;46715;40.642;-7.920;2024-03-08T08:34:40;18.23;;;4.53;;
60873;SDS011;46715;40.642;-7.920;2024-03-08T08:36:43;16.75;;;3.03;;
60873;SDS011;46715;40.642;-7.920;2024-03-08T08:38:43;19.57;;;3.67;;
60873;SDS011;46715;40.642;-7.920;2024-03-08T08:40:44;16.17;;;3.67;;
60873;SDS011;46715;40.642;-7.920;2024-03-08T08:42:45;14.73;;;3.30;;
60873;SDS011;46715;40.642;-7.920;2024-03-08T08:44:46;13.10;;;2.77;;
60873;SDS011;46715;40.642;-7.920;2024-03-08T08:46:46;27.67;;;3.27;;
60873;SDS011;46715;40.642;-7.920;2024-03-08T08:48:55;15.75;;;3.85;;
60873;SDS011;46715;40.642;-7.920;2024-03-08T08:50:56;23.92;;;4.45;;
60873;SDS011;46715;40.642;-7.920;2024-03-08T09:02:51;14.93;;;3.50;;
60873;SDS011;46715;40.642;-7.920;2024-03-08T09:04:52;16.40;;;3.43;;
60873;SDS011;46715;40.642;-7.920;2024-03-08T09:06:54;14.98;;;3.97;;
60873;SDS011;46715;40.642;-7.920;2024-03-08T09:08:55;15.30;;;3.75;;
60873;SDS011;46715;40.642;-7.920;2024-03-08T09:10:56;14.47;;;3.73;;
60873;SDS011;46715;40.642;-7.920;2024-03-08T09:12:56;14.10;;;3.57;;
60873;SDS011;46715;40.642;-7.920;2024-03-08T09:14:57;18.87;;;3.63;;
60873;SDS011;46715;40.642;-7.920;2024-03-08T09:16:58;15.23;;;3.30;;
60873;SDS011;46715;40.642;-7.920;2024-03-08T09:19:00;16.05;;;3.75;;
60873;SDS011;46715;40.642;-7.920;2024-03-08T09:21:01;20.00;;;4.00;;
60873;SDS011;46715;40.642;-7.920;2024-03-08T09:25:04;13.77;;;3.67;;
60873;SDS011;46715;40.642;-7.920;2024-03-08T09:27:05;13.38;;;3.72;;
60873;SDS011;46715;40.642;-7.920;2024-03-08T09:29:06;9.13;;;3.05;;
60873;SDS011;46715;40.642;-7.920;2024-03-08T09:31:07;9.53;;;3.30;;
60873;SDS011;46715;40.642;-7.920;2024-03-08T09:33:08;16.17;;;3.13;;
60873;SDS011;46715;40.642;-7.920;2024-03-08T09:35:10;14.25;;;3.30;;
60873;SDS011;46715;40.642;-7.920;2024-03-08T09:37:11;14.77;;;3.72;;
60873;SDS011;46715;40.642;-7.920;2024-03-08T09:39:12;9.20;;;2.58;;
60873;SDS011;46715;40.642;-7.920;2024-03-08T09:41:17;13.10;;;2.85;;
60873;SDS011;46715;40.642;-7.920;2024-03-08T09:43:17;9.87;;;3.17;;
60873;SDS011;46715;40.642;-7.920;2024-03-08T09:45:19;18.40;;;3.97;;
60873;SDS011;46715;40.642;-7.920;2024-03-08T09:47:25;15.40;;;3.38;;
60873;SDS011;46715;40.642;-7.920;2024-03-08T09:49:29;19.13;;;3.95;;
60873;SDS011;46715;40.642;-7.920;2024-03-08T09:51:30;14.23;;;3.65;;
60873;SDS011;46715;40.642;-7.920;2024-03-08T09:53:35;9.73;;;3.00;;
60873;SDS011;46715;40.642;-7.920;2024-03-08T09:55:37;12.85;;;4.68;;
60873;SDS011;46715;40.642;-7.920;2024-03-08T09:57:42;18.92;;;5.50;;
60873;SDS011;46715;40.642;-7.920;2024-03-08T10:00:03;16.60;;;5.03;;
60873;SDS011;46715;40.642;-7.920;2024-03-08T10:02:18;13.80;;;4.18;;
60873;SDS011;46715;40.642;-7.920;2024-03-08T10:04:19;13.38;;;3.63;;
60873;SDS011;46715;40.642;-7.920;2024-03-08T10:06:23;13.90;;;3.15;;
60873;SDS011;46715;40.642;-7.920;2024-03-08T10:08:25;13.20;;;2.80;;
60873;SDS011;46715;40.642;-7.920;2024-03-08T10:10:33;9.95;;;2.95;;
60873;SDS011;46715;40.642;-7.920;2024-03-08T10:12:40;14.80;;;2.78;;
60873;SDS011;46715;40.642;-7.920;2024-03-08T10:14:41;10.17;;;2.90;;
60873;SDS011;46715;40.642;-7.920;2024-03-08T10:16:42;16.73;;;2.67;;
60873;SDS011;46715;40.642;-7.920;2024-03-08T10:21:08;10.35;;;2.85;;
60873;SDS011;46715;40.642;-7.920;2024-03-08T10:23:10;12.18;;;3.08;;
60873;SDS011;46715;40.642;-7.920;2024-03-08T10:25:12;7.05;;;2.17;;
60873;SDS011;46715;40.642;-7.920;2024-03-08T10:27:13;9.48;;;2.25;;
60873;SDS011;46715;40.642;-7.920;2024-03-08T10:29:16;8.27;;;2.30;;
60873;SDS011;46715;40.642;-7.920;2024-03-08T10:31:19;8.68;;;2.83;;
60873;SDS011;46715;40.642;-7.920;2024-03-08T10:33:21;10.80;;;2.50;;
60873;SDS011;46715;40.642;-7.920;2024-03-08T10:35:22;10.50;;;2.37;;
60873;SDS011;46715;40.642;-7.920;2024-03-08T10:37:24;10.27;;;2.15;;
60873;SDS011;46715;40.642;-7.920;2024-03-08T10:39:28;11.95;;;2.20;;
60873;SDS011;46715;40.642;-7.920;2024-03-08T10:41:35;11.93;;;2.47;;
60873;SDS011;46715;40.642;-7.920;2024-03-08T10:43:46;9.13;;;2.55;;
60873;SDS011;46715;40.642;-7.920;2024-03-08T10:46:13;6.80;;;2.30;;
60873;SDS011;46715;40.642;-7.920;2024-03-08T10:48:34;8.63;;;2.17;;
60873;SDS011;46715;40.642;-7.920;2024-03-08T10:50:45;11.10;;;2.53;;
60873;SDS011;46715;40.642;-7.920;2024-03-08T10:52:49;13.27;;;2.33;;
60873;SDS011;46715;40.642;-7.920;2024-03-08T10:54:52;13.63;;;2.45;;
60873;SDS011;46715;40.642;-7.920;2024-03-08T10:56:55;11.40;;;2.80;;
60873;SDS011;46715;40.642;-7.920;2024-03-08T10:58:55;13.40;;;2.70;;
60873;SDS011;46715;40.642;-7.920;2024-03-08T11:00:56;10.53;;;1.93;;
60873;SDS011;46715;40.642;-7.920;2024-03-08T11:02:58;12.57;;;2.95;;
60873;SDS011;46715;40.642;-7.920;2024-03-08T11:05:00;15.07;;;2.88;;
60873;SDS011;46715;40.642;-7.920;2024-03-08T11:07:04;9.27;;;2.55;;
60873;SDS011;46715;40.642;-7.920;2024-03-08T11:11:31;7.20;;;2.08;;
60873;SDS011;46715;40.642;-7.920;2024-03-08T11:13:39;5.60;;;1.70;;
60873;SDS011;46715;40.642;-7.920;2024-03-08T11:15:41;11.98;;;2.05;;
60873;SDS011;46715;40.642;-7.920;2024-03-08T11:17:49;11.95;;;2.47;;
60873;SDS011;46715;40.642;-7.920;2024-03-08T11:19:50;8.27;;;1.98;;
60873;SDS011;46715;40.642;-7.920;2024-03-08T11:21:59;7.20;;;2.28;;
60873;SDS011;46715;40.642;-7.920;2024-03-08T11:24:11;6.25;;;1.88;;
60873;SDS011;46715;40.642;-7.920;2024-03-08T11:26:20;14.73;;;2.90;;
60873;SDS011;46715;40.642;-7.920;2024-03-08T11:28:23;8.27;;;2.47;;
60873;SDS011;46715;40.642;-7.920;2024-03-08T11:30:24;9.55;;;2.35;;
60873;SDS011;46715;40.642;-7.920;2024-03-08T11:32:29;11.05;;;2.88;;
60873;SDS011;46715;40.642;-7.920;2024-03-08T11:34:30;15.00;;;2.97;;
60873;SDS011;46715;40.642;-7.920;2024-03-08T11:36:33;8.07;;;2.30;;
60873;SDS011;46715;40.642;-7.920;2024-03-08T11:38:40;11.98;;;2.65;;
60873;SDS011;46715;40.642;-7.920;2024-03-08T11:40:47;12.13;;;2.83;;
60873;SDS011;46715;40.642;-7.920;2024-03-08T11:42:50;10.02;;;3.00;;
60873;SDS011;46715;40.642;-7.920;2024-03-08T11:44:54;8.55;;;2.47;;
60873;SDS011;46715;40.642;-7.920;2024-03-08T11:46:55;11.00;;;2.43;;
60873;SDS011;46715;40.642;-7.920;2024-03-08T11:48:56;9.23;;;2.37;;
60873;SDS011;46715;40.642;-7.920;2024-03-08T11:51:00;14.37;;;2.60;;
60873;SDS011;46715;40.642;-7.920;2024-03-08T11:53:04;11.85;;;2.58;;
60873;SDS011;46715;40.642;-7.920;2024-03-08T11:55:06;12.43;;;2.80;;
60873;SDS011;46715;40.642;-7.920;2024-03-08T11:57:07;15.02;;;2.75;;
60873;SDS011;46715;40.642;-7.920;2024-03-08T11:59:13;10.30;;;2.13;;
60873;SDS011;46715;40.642;-7.920;2024-03-08T12:01:15;7.10;;;1.67;;
60873;SDS011;46715;40.642;-7.920;2024-03-08T12:03:17;9.65;;;1.90;;
60873;SDS011;46715;40.642;-7.920;2024-03-08T12:05:19;7.60;;;2.05;;
60873;SDS011;46715;40.642;-7.920;2024-03-08T12:07:20;10.13;;;2.17;;
60873;SDS011;46715;40.642;-7.920;2024-03-08T12:09:20;11.50;;;2.60;;
60873;SDS011;46715;40.642;-7.920;2024-03-08T12:11:22;13.32;;;2.42;;
60873;SDS011;46715;40.642;-7.920;2024-03-08T12:13:23;8.27;;;2.50;;
60873;SDS011;46715;40.642;-7.920;2024-03-08T12:15:29;10.15;;;2.70;;
60873;SDS011;46715;40.642;-7.920;2024-03-08T12:17:34;8.43;;;2.15;;
60873;SDS011;46715;40.642;-7.920;2024-03-08T12:19:35;12.55;;;2.40;;
60873;SDS011;46715;40.642;-7.920;2024-03-08T12:21:38;13.75;;;2.25;;
60873;SDS011;46715;40.642;-7.920;2024-03-08T12:23:46;13.70;;;2.70;;
60873;SDS011;46715;40.642;-7.920;2024-03-08T12:25:51;7.75;;;2.20;;
60873;SDS011;46715;40.642;-7.920;2024-03-08T12:27:51;10.40;;;2.83;;
60873;SDS011;46715;40.642;-7.920;2024-03-08T12:31:57;15.27;;;2.50;;
60873;SDS011;46715;40.642;-7.920;2024-03-08T12:34:02;15.07;;;2.45;;
60873;SDS011;46715;40.642;-7.920;2024-03-08T12:36:03;13.65;;;2.20;;
60873;SDS011;46715;40.642;-7.920;2024-03-08T12:38:07;14.27;;;2.40;;
60873;SDS011;46715;40.642;-7.920;2024-03-08T12:40:09;9.82;;;2.17;;
60873;SDS011;46715;40.642;-7.920;2024-03-08T12:42:10;12.23;;;2.28;;
60873;SDS011;46715;40.642;-7.920;2024-03-08T12:44:11;15.37;;;4.50;;
60873;SDS011;46715;40.642;-7.920;2024-03-08T12:46:12;10.80;;;3.00;;
60873;SDS011;46715;40.642;-7.920;2024-03-08T12:48:13;8.93;;;1.93;;
60873;SDS011;46715;40.642;-7.920;2024-03-08T12:50:17;14.65;;;2.42;;
60873;SDS011;46715;40.642;-7.920;2024-03-08T12:52:18;7.28;;;2.17;;
60873;SDS011;46715;40.642;-7.920;2024-03-08T12:54:19;12.73;;;2.88;;
60873;SDS011;46715;40.642;-7.920;2024-03-08T12:56:30;12.73;;;2.75;;
60873;SDS011;46715;40.642;-7.920;2024-03-08T12:58:34;11.85;;;2.75;;
60873;SDS011;46715;40.642;-7.920;2024-03-08T13:00:36;10.85;;;2.30;;
60873;SDS011;46715;40.642;-7.920;2024-03-08T13:02:40;10.20;;;3.05;;
60873;SDS011;46715;40.642;-7.920;2024-03-08T13:06:43;7.93;;;1.90;;
60873;SDS011;46715;40.642;-7.920;2024-03-08T13:08:43;14.87;;;1.93;;
60873;SDS011;46715;40.642;-7.920;2024-03-08T13:10:44;8.47;;;1.93;;
60873;SDS011;46715;40.642;-7.920;2024-03-08T13:12:45;6.40;;;2.00;;
60873;SDS011;46715;40.642;-7.920;2024-03-08T13:14:46;8.67;;;2.40;;
60873;SDS011;46715;40.642;-7.920;2024-03-08T13:16:47;8.43;;;2.53;;
60873;SDS011;46715;40.642;-7.920;2024-03-08T13:18:48;9.13;;;2.90;;
60873;SDS011;46715;40.642;-7.920;2024-03-08T13:20:49;9.97;;;2.37;;
60873;SDS011;46715;40.642;-7.920;2024-03-08T13:22:52;11.23;;;2.60;;
60873;SDS011;46715;40.642;-7.920;2024-03-08T13:24:53;10.10;;;2.70;;
60873;SDS011;46715;40.642;-7.920;2024-03-08T13:26:53;9.60;;;2.73;;
60873;SDS011;46715;40.642;-7.920;2024-03-08T13:28:54;13.43;;;2.50;;
60873;SDS011;46715;40.642;-7.920;2024-03-08T13:30:57;12.40;;;2.70;;
60873;SDS011;46715;40.642;-7.920;2024-03-08T13:32:58;12.30;;;2.45;;
60873;SDS011;46715;40.642;-7.920;2024-03-08T13:34:59;10.20;;;2.50;;
60873;SDS011;46715;40.642;-7.920;2024-03-08T13:36:59;12.37;;;2.80;;
60873;SDS011;46715;40.642;-7.920;2024-03-08T13:39:01;12.55;;;2.85;;
60873;SDS011;46715;40.642;-7.920;2024-03-08T13:41:01;8.03;;;2.23;;
60873;SDS011;46715;40.642;-7.920;2024-03-08T13:43:03;11.75;;;2.97;;
60873;SDS011;46715;40.642;-7.920;2024-03-08T13:45:05;9.87;;;2.10;;